Weather observations for the past three days for
Chico Municipal Airport
Imperial (Metric)
Date Time (pdt) Wind (mph) Vis. (mi.) Weather Sky Cond. Temperature (ºF) Relative Humidity Wind Chill (°F) Heat Index (°F) Pressure Precipitation (in)
Air Dwpt 6 hour altimeter (in) sea level (mb) 1 hr 3 hr 6 hr
Max. Min.
08 17:55 SW 6 10.00 Fair CLR 84.2 57.2 40% 83 29.91 0.0
08 15:52 W 8 10.00 Fair CLR 84.2 60.8 45% 84 29.97 0.0
08 13:52 W 3 10.00 Fair CLR 82.4 62.6 51% 83 29.99 0.0
08 12:50 W 6 10.00 Fair CLR 78.8 62.6 58% 80 30.02 0.0
08 11:50 Vrbl 6 10.00 Fair CLR 75.2 60.8 61% 77 30.05 0.0
08 10:50 Vrbl 6 10.00 Fair CLR 71.6 59 65% 30.06 0.0
08 09:49 SW 3 10.00 Fair CLR 69.8 59 69% 30.06 0.0
08 08:50 Calm 10.00 Fair CLR 64.4 57.2 78% 30.06 0.0
08 07:50 SE 3 10.00 Fair CLR 64.4 57.2 78% 30.05 0.0
08 07:00 SE 6 10.00 Fair CLR 62.6 57.2 83% 30.04 0.0
07 17:55 Vrbl 6 10.00 Fair CLR 82.4 62.6 51% 83 29.95 0.0
07 16:50 Vrbl 6 10.00 Fair CLR 82.4 62.6 51% 83 29.97 0.0
07 15:50 Vrbl 5 10.00 Fair CLR 80.6 62.6 54% 82 29.99 0.0
07 14:50 Vrbl 5 10.00 Fair CLR 78.8 60.8 54% 80 30.02 0.0
07 12:55 NW 3 10.00 Fair CLR 75.2 59 57% 78 30.06 0.0
07 11:19 Calm 10.00 Fair CLR 68 59 73% 30.09 0.0
07 10:55 SW 5 10.00 Partly Cloudy SCT035 66.2 59 78% 30.1 0.0
07 10:10 Calm 10.00 Overcast OVC037 64.4 57.2 78% 30.11 0.0
07 09:50 Calm 10.00 Overcast OVC060 64.4 55.4 73% 30.11 0.0
07 08:50 SE 3 10.00 Overcast OVC060 62.6 57.2 83% 30.11 0.0
07 07:50 E 5 10.00 Fair CLR 60.8 55.4 83% 30.11 0.0
07 07:00 Calm 10.00 Fair CLR 57.2 55.4 94% 30.09 0.0
06 17:50 S 3 10.00 Fair CLR 73.4 57.2 57% 30.03 0.0
06 16:50 W 3 10.00 Fair CLR 75.2 57.2 54% 78 30.05 0.0
06 15:50 W 6 10.00 Partly Cloudy SCT040 73.4 57.2 57% 30.04 0.0
06 14:45 NW 6 10.00 Partly Cloudy SCT040 71.6 55.4 57% 30.09 0.0
06 13:55 W 6 10.00 Partly Cloudy SCT040 69.8 55.4 60% 30.1 0.0
06 13:50 N 8 10.00 Mostly Cloudy BKN040 71.6 55.4 57% 30.12 0.0
06 12:50 Calm 10.00 Mostly Cloudy BKN035 68 53.6 60% 30.12 0.0
06 11:55 Vrbl 5 10.00 Mostly Cloudy BKN030 0 0 0% 30.14 0.0
06 10:50 S 5 10.00 Mostly Cloudy SCT020 BKN055 66.2 55.4 68% 30.15 0.0
06 09:50 Calm 10.00 Overcast OVC042 62.6 55.4 77% 30.15 0.0
06 08:55 Calm 10.00 Overcast OVC040 62.6 55.4 77% 30.15 0.0
06 07:55 SE 3 10.00 Overcast OVC040 60.8 55.4 83% 30.14 0.0
06 07:00 SE 3 10.00 Overcast OVC055 60.8 55.4 83% 30.13 0.0
Date Time (pdt) Wind (mph) Vis. (mi.) Weather Sky Cond. Air Dwpt Max. Min. Relative Humidity Wind Chill (°F) Heat Index (°F) altimeter (in) sea level (mb) 1 hr 3 hr 6 hr
6 hour
Temperature (ºF) Pressure Precipitation (in)